sensor_id;sensor_type;location;lat;lon;timestamp;pressure;altitude;pressure_sealevel;temperature;humidity
49841;BME280;35738;49.890;5.930;2023-02-16T00:01:53;96627.88;;;3.03;98.95
49841;BME280;35738;49.890;5.930;2023-02-16T00:04:28;96619.38;;;2.94;98.37
49841;BME280;35738;49.890;5.930;2023-02-16T00:06:56;96616.06;;;2.87;99.43
49841;BME280;35738;49.890;5.930;2023-02-16T00:09:23;96610.09;;;2.90;98.29
49841;BME280;35738;49.890;5.930;2023-02-16T00:11:51;96610.88;;;2.80;99.21
49841;BME280;35738;49.890;5.930;2023-02-16T00:14:38;96615.22;;;2.81;98.88
49841;BME280;35738;49.890;5.930;2023-02-16T00:17:05;96608.94;;;2.76;99.30
49841;BME280;35738;49.890;5.930;2023-02-16T00:19:40;96615.94;;;2.67;100.00
49841;BME280;35738;49.890;5.930;2023-02-16T00:22:09;96617.88;;;2.71;100.00
49841;BME280;35738;49.890;5.930;2023-02-16T00:24:36;96606.00;;;2.82;99.25
49841;BME280;35738;49.890;5.930;2023-02-16T00:27:11;96610.03;;;2.80;99.03
49841;BME280;35738;49.890;5.930;2023-02-16T00:29:37;96608.41;;;2.79;99.54
49841;BME280;35738;49.890;5.930;2023-02-16T00:32:04;96609.19;;;2.74;98.77
49841;BME280;35738;49.890;5.930;2023-02-16T00:34:39;96615.22;;;2.81;99.02
49841;BME280;35738;49.890;5.930;2023-02-16T00:37:11;96615.22;;;2.81;97.97
49841;BME280;35738;49.890;5.930;2023-02-16T00:39:39;96613.59;;;2.80;98.40
49841;BME280;35738;49.890;5.930;2023-02-16T00:42:14;96610.34;;;2.83;97.57
49841;BME280;35738;49.890;5.930;2023-02-16T00:44:44;96617.66;;;2.83;97.74
49841;BME280;35738;49.890;5.930;2023-02-16T00:47:28;96614.06;;;2.72;98.10
49841;BME280;35738;49.890;5.930;2023-02-16T00:49:55;96602.94;;;2.74;97.20
49841;BME280;35738;49.890;5.930;2023-02-16T00:52:30;96601.31;;;2.73;96.91
49841;BME280;35738;49.890;5.930;2023-02-16T00:54:58;96606.78;;;2.78;95.57
49841;BME280;35738;49.890;5.930;2023-02-16T00:57:30;96607.13;;;2.92;94.87
49841;BME280;35738;49.890;5.930;2023-02-16T01:00:06;96603.31;;;2.93;94.67
49841;BME280;35738;49.890;5.930;2023-02-16T01:02:36;96602.47;;;2.87;94.06
49841;BME280;35738;49.890;5.930;2023-02-16T01:05:03;96606.03;;;2.93;94.55
49841;BME280;35738;49.890;5.930;2023-02-16T01:07:30;96605.56;;;3.01;92.98
49841;BME280;35738;49.890;5.930;2023-02-16T01:10:17;96612.53;;;2.86;92.86
49841;BME280;35738;49.890;5.930;2023-02-16T01:13:02;96598.06;;;2.76;92.99
49841;BME280;35738;49.890;5.930;2023-02-16T01:15:29;96597.53;;;2.79;92.78
49841;BME280;35738;49.890;5.930;2023-02-16T01:17:55;96599.72;;;2.77;92.55
49841;BME280;35738;49.890;5.930;2023-02-16T01:20:24;96593.75;;;2.80;92.64
49841;BME280;35738;49.890;5.930;2023-02-16T01:22:51;96592.13;;;2.79;93.10
49841;BME280;35738;49.890;5.930;2023-02-16T01:25:17;96591.56;;;2.77;93.29
49841;BME280;35738;49.890;5.930;2023-02-16T01:27:47;96597.84;;;2.82;93.74
49841;BME280;35738;49.890;5.930;2023-02-16T01:30:18;96593.56;;;2.97;94.08
49841;BME280;35738;49.890;5.930;2023-02-16T01:32:45;96592.84;;;3.06;93.81
49841;BME280;35738;49.890;5.930;2023-02-16T01:35:37;96592.59;;;3.13;93.76
49841;BME280;35738;49.890;5.930;2023-02-16T01:38:03;96590.44;;;3.15;93.23
49841;BME280;35738;49.890;5.930;2023-02-16T01:43:19;96577.03;;;2.98;93.64
49841;BME280;35738;49.890;5.930;2023-02-16T01:45:50;96586.69;;;2.79;93.56
49841;BME280;35738;49.890;5.930;2023-02-16T01:48:25;96582.78;;;2.65;95.02
49841;BME280;35738;49.890;5.930;2023-02-16T01:51:19;96581.50;;;2.77;95.44
49841;BME280;35738;49.890;5.930;2023-02-16T01:54:20;96582.47;;;2.98;95.30
49841;BME280;35738;49.890;5.930;2023-02-16T01:57:08;96581.69;;;3.08;96.01
49841;BME280;35738;49.890;5.930;2023-02-16T02:02:20;96585.00;;;3.15;95.06
49841;BME280;35738;49.890;5.930;2023-02-16T02:04:58;96574.91;;;3.10;94.29
49841;BME280;35738;49.890;5.930;2023-02-16T02:13:07;96566.84;;;2.78;95.63
49841;BME280;35738;49.890;5.930;2023-02-16T02:15:35;96564.66;;;2.75;96.42
49841;BME280;35738;49.890;5.930;2023-02-16T02:18:02;96567.19;;;2.92;97.12
49841;BME280;35738;49.890;5.930;2023-02-16T02:31:58;96559.03;;;2.92;96.48
49841;BME280;35738;49.890;5.930;2023-02-16T02:35:03;96547.34;;;2.92;96.33
49841;BME280;35738;49.890;5.930;2023-02-16T02:37:48;96547.88;;;2.88;97.54
49841;BME280;35738;49.890;5.930;2023-02-16T02:40:40;96548.47;;;2.96;98.14
49841;BME280;35738;49.890;5.930;2023-02-16T02:43:23;96537.31;;;2.92;96.88
49841;BME280;35738;49.890;5.930;2023-02-16T02:45:54;96547.06;;;2.88;98.68
49841;BME280;35738;49.890;5.930;2023-02-16T02:48:21;96539.00;;;2.98;97.93
49841;BME280;35738;49.890;5.930;2023-02-16T02:50:52;96543.00;;;2.91;97.74
49841;BME280;35738;49.890;5.930;2023-02-16T02:53:42;96528.59;;;2.90;98.47
49841;BME280;35738;49.890;5.930;2023-02-16T02:56:12;96529.13;;;2.87;98.31
49841;BME280;35738;49.890;5.930;2023-02-16T02:59:04;96523.16;;;2.85;99.47
49841;BME280;35738;49.890;5.930;2023-02-16T03:01:55;96522.31;;;2.84;99.16
49841;BME280;35738;49.890;5.930;2023-02-16T03:04:27;96519.56;;;2.74;99.04
49841;BME280;35738;49.890;5.930;2023-02-16T03:06:56;96526.63;;;2.75;99.35
49841;BME280;35738;49.890;5.930;2023-02-16T03:09:24;96525.75;;;2.65;99.12
49841;BME280;35738;49.890;5.930;2023-02-16T03:11:51;96529.28;;;2.65;100.00
49841;BME280;35738;49.890;5.930;2023-02-16T03:14:50;96534.50;;;2.72;100.00
49841;BME280;35738;49.890;5.930;2023-02-16T03:17:24;96538.63;;;2.84;99.88
49841;BME280;35738;49.890;5.930;2023-02-16T03:20:11;96526.41;;;2.87;98.83
49841;BME280;35738;49.890;5.930;2023-02-16T03:23:00;96521.72;;;2.72;99.26
49841;BME280;35738;49.890;5.930;2023-02-16T03:25:47;96525.72;;;2.54;99.91
49841;BME280;35738;49.890;5.930;2023-02-16T03:28:33;96512.91;;;2.50;99.95
49841;BME280;35738;49.890;5.930;2023-02-16T03:31:26;96519.94;;;2.41;100.00
49841;BME280;35738;49.890;5.930;2023-02-16T03:33:55;96511.75;;;2.36;100.00
49841;BME280;35738;49.890;5.930;2023-02-16T03:36:27;96519.28;;;2.23;100.00
49841;BME280;35738;49.890;5.930;2023-02-16T03:38:55;96514.84;;;2.17;100.00
49841;BME280;35738;49.890;5.930;2023-02-16T03:41:23;96516.03;;;2.27;100.00
49841;BME280;35738;49.890;5.930;2023-02-16T03:43:50;96513.78;;;2.18;100.00
49841;BME280;35738;49.890;5.930;2023-02-16T03:46:17;96517.03;;;2.20;100.00
49841;BME280;35738;49.890;5.930;2023-02-16T03:48:43;96520.81;;;2.14;100.00
49841;BME280;35738;49.890;5.930;2023-02-16T03:51:10;96521.88;;;2.13;100.00
49841;BME280;35738;49.890;5.930;2023-02-16T03:53:36;96528.41;;;2.17;100.00
49841;BME280;35738;49.890;5.930;2023-02-16T03:56:03;96520.69;;;2.31;100.00
49841;BME280;35738;49.890;5.930;2023-02-16T03:58:29;96519.59;;;2.32;100.00
49841;BME280;35738;49.890;5.930;2023-02-16T04:00:55;96526.66;;;2.33;100.00
49841;BME280;35738;49.890;5.930;2023-02-16T04:03:25;96530.72;;;2.31;100.00
49841;BME280;35738;49.890;5.930;2023-02-16T04:05:52;96534.78;;;2.28;100.00
49841;BME280;35738;49.890;5.930;2023-02-16T04:08:18;96529.63;;;2.32;100.00
49841;BME280;35738;49.890;5.930;2023-02-16T04:10:45;96522.34;;;2.37;100.00
49841;BME280;35738;49.890;5.930;2023-02-16T04:13:11;96516.13;;;2.42;100.00
49841;BME280;35738;49.890;5.930;2023-02-16T04:15:38;96528.03;;;2.36;100.00
49841;BME280;35738;49.890;5.930;2023-02-16T04:18:05;96522.53;;;2.26;100.00
49841;BME280;35738;49.890;5.930;2023-02-16T04:20:33;96521.66;;;2.20;100.00
49841;BME280;35738;49.890;5.930;2023-02-16T04:23:00;96528.53;;;2.28;100.00
49841;BME280;35738;49.890;5.930;2023-02-16T04:25:27;96522.34;;;2.37;100.00
49841;BME280;35738;49.890;5.930;2023-02-16T04:27:54;96526.16;;;2.41;100.00
49841;BME280;35738;49.890;5.930;2023-02-16T04:30:28;96526.97;;;2.37;100.00
49841;BME280;35738;49.890;5.930;2023-02-16T04:32:55;96528.88;;;2.41;100.00
49841;BME280;35738;49.890;5.930;2023-02-16T04:35:22;96517.75;;;2.43;100.00
49841;BME280;35738;49.890;5.930;2023-02-16T04:37:48;96528.06;;;2.41;100.00
49841;BME280;35738;49.890;5.930;2023-02-16T04:40:18;96530.69;;;2.26;100.00
49841;BME280;35738;49.890;5.930;2023-02-16T04:42:45;96533.66;;;2.24;100.00
49841;BME280;35738;49.890;5.930;2023-02-16T04:45:12;96541.22;;;2.22;100.00
49841;BME280;35738;49.890;5.930;2023-02-16T04:47:38;96534.78;;;2.28;100.00
49841;BME280;35738;49.890;5.930;2023-02-16T04:50:05;96532.31;;;2.27;100.00
49841;BME280;35738;49.890;5.930;2023-02-16T04:52:32;96520.03;;;2.19;100.00
49841;BME280;35738;49.890;5.930;2023-02-16T04:54:59;96527.41;;;2.23;100.00
49841;BME280;35738;49.890;5.930;2023-02-16T04:57:26;96527.97;;;2.26;100.00
49841;BME280;35738;49.890;5.930;2023-02-16T04:59:52;96526.25;;;2.19;100.00
49841;BME280;35738;49.890;5.930;2023-02-16T05:02:19;96525.50;;;2.24;100.00
49841;BME280;35738;49.890;5.930;2023-02-16T05:04:45;96534.16;;;2.21;100.00
49841;BME280;35738;49.890;5.930;2023-02-16T05:07:12;96532.50;;;2.20;100.00
49841;BME280;35738;49.890;5.930;2023-02-16T05:09:38;96530.31;;;2.17;100.00
49841;BME280;35738;49.890;5.930;2023-02-16T05:12:05;96521.06;;;2.13;100.00
49841;BME280;35738;49.890;5.930;2023-02-16T05:14:50;96521.31;;;2.11;100.00
49841;BME280;35738;49.890;5.930;2023-02-16T05:17:20;96517.50;;;2.07;100.00
49841;BME280;35738;49.890;5.930;2023-02-16T05:19:49;96530.50;;;2.05;100.00
49841;BME280;35738;49.890;5.930;2023-02-16T05:22:16;96526.94;;;2.00;100.00
49841;BME280;35738;49.890;5.930;2023-02-16T05:24:43;96529.94;;;2.03;100.00
49841;BME280;35738;49.890;5.930;2023-02-16T05:27:16;96531.59;;;2.04;100.00
49841;BME280;35738;49.890;5.930;2023-02-16T05:29:42;96528.06;;;2.04;100.00
49841;BME280;35738;49.890;5.930;2023-02-16T05:32:09;96532.69;;;2.08;100.00
49841;BME280;35738;49.890;5.930;2023-02-16T05:34:36;96530.50;;;2.05;100.00
49841;BME280;35738;49.890;5.930;2023-02-16T05:37:02;96535.75;;;2.17;100.00
49841;BME280;35738;49.890;5.930;2023-02-16T05:39:29;96534.88;;;2.11;100.00
49841;BME280;35738;49.890;5.930;2023-02-16T05:41:55;96537.03;;;2.09;100.00
49841;BME280;35738;49.890;5.930;2023-02-16T05:44:22;96540.84;;;2.08;100.00
49841;BME280;35738;49.890;5.930;2023-02-16T05:46:48;96536.31;;;2.19;100.00
49841;BME280;35738;49.890;5.930;2023-02-16T05:49:15;96540.34;;;2.16;100.00
49841;BME280;35738;49.890;5.930;2023-02-16T05:51:43;96539.56;;;2.21;100.00
49841;BME280;35738;49.890;5.930;2023-02-16T05:54:10;96531.75;;;2.25;100.00
49841;BME280;35738;49.890;5.930;2023-02-16T05:56:47;96535.56;;;2.23;100.00
49841;BME280;35738;49.890;5.930;2023-02-16T05:59:14;96538.84;;;2.31;100.00
49841;BME280;35738;49.890;5.930;2023-02-16T06:01:42;96529.66;;;2.37;100.00
49841;BME280;35738;49.890;5.930;2023-02-16T06:04:10;96529.69;;;2.42;100.00
49841;BME280;35738;49.890;5.930;2023-02-16T06:06:37;96531.94;;;2.50;100.00
49841;BME280;35738;49.890;5.930;2023-02-16T06:09:06;96526.00;;;2.58;100.00
49841;BME280;35738;49.890;5.930;2023-02-16T06:11:33;96515.47;;;2.67;100.00
49841;BME280;35738;49.890;5.930;2023-02-16T06:14:08;96517.94;;;2.73;100.00
49841;BME280;35738;49.890;5.930;2023-02-16T06:16:36;96520.66;;;2.78;100.00
49841;BME280;35738;49.890;5.930;2023-02-16T06:19:04;96518.81;;;2.89;100.00
49841;BME280;35738;49.890;5.930;2023-02-16T06:21:31;96526.72;;;2.96;100.00
49841;BME280;35738;49.890;5.930;2023-02-16T06:23:57;96534.88;;;2.96;100.00
49841;BME280;35738;49.890;5.930;2023-02-16T06:26:25;96527.34;;;3.08;100.00
49841;BME280;35738;49.890;5.930;2023-02-16T06:28:52;96526.28;;;3.14;100.00
49841;BME280;35738;49.890;5.930;2023-02-16T06:31:19;96536.59;;;3.07;100.00
49841;BME280;35738;49.890;5.930;2023-02-16T06:33:46;96535.00;;;3.16;100.00
49841;BME280;35738;49.890;5.930;2023-02-16T06:36:13;96535.00;;;3.16;100.00
49841;BME280;35738;49.890;5.930;2023-02-16T06:38:40;96539.88;;;3.14;100.00
49841;BME280;35738;49.890;5.930;2023-02-16T06:41:07;96537.13;;;3.09;100.00
49841;BME280;35738;49.890;5.930;2023-02-16T06:43:33;96532.53;;;3.14;100.00
49841;BME280;35738;49.890;5.930;2023-02-16T06:46:00;96538.78;;;3.10;100.00
49841;BME280;35738;49.890;5.930;2023-02-16T06:48:26;96542.56;;;3.09;100.00
49841;BME280;35738;49.890;5.930;2023-02-16T06:50:53;96544.75;;;3.12;100.00
49841;BME280;35738;49.890;5.930;2023-02-16T06:53:20;96540.19;;;3.23;100.00
49841;BME280;35738;49.890;5.930;2023-02-16T06:55:49;96548.59;;;3.21;100.00
49841;BME280;35738;49.890;5.930;2023-02-16T06:58:16;96544.81;;;3.27;100.00
49841;BME280;35738;49.890;5.930;2023-02-16T07:00:42;96552.44;;;3.30;100.00
49841;BME280;35738;49.890;5.930;2023-02-16T07:03:09;96550.81;;;3.34;100.00
49841;BME280;35738;49.890;5.930;2023-02-16T07:05:35;96548.13;;;3.39;100.00
49841;BME280;35738;49.890;5.930;2023-02-16T07:08:03;96541.06;;;3.43;100.00
49841;BME280;35738;49.890;5.930;2023-02-16T07:10:29;96551.41;;;3.57;100.00
49841;BME280;35738;49.890;5.930;2023-02-16T07:13:14;96549.78;;;3.61;99.54
49841;BME280;35738;49.890;5.930;2023-02-16T07:15:41;96552.53;;;3.71;99.38
49841;BME280;35738;49.890;5.930;2023-02-16T07:18:07;96554.16;;;3.62;99.26
49841;BME280;35738;49.890;5.930;2023-02-16T07:20:34;96556.06;;;3.71;99.17
49841;BME280;35738;49.890;5.930;2023-02-16T07:23:00;96565.09;;;3.72;99.25
49841;BME280;35738;49.890;5.930;2023-02-16T07:25:27;96563.13;;;3.67;99.17
49841;BME280;35738;49.890;5.930;2023-02-16T07:27:53;96560.47;;;3.72;98.90
49841;BME280;35738;49.890;5.930;2023-02-16T07:30:20;96563.94;;;3.68;97.86
49841;BME280;35738;49.890;5.930;2023-02-16T07:32:47;96562.63;;;3.75;98.42
49841;BME280;35738;49.890;5.930;2023-02-16T07:35:13;96558.56;;;3.83;97.98
49841;BME280;35738;49.890;5.930;2023-02-16T07:37:40;96560.22;;;3.89;97.06
49841;BME280;35738;49.890;5.930;2023-02-16T07:40:07;96570.81;;;3.96;97.38
49841;BME280;35738;49.890;5.930;2023-02-16T07:42:34;96571.09;;;3.94;96.84
49841;BME280;35738;49.890;5.930;2023-02-16T07:45:00;96566.75;;;3.93;96.55
49841;BME280;35738;49.890;5.930;2023-02-16T07:47:26;96560.75;;;4.01;96.16
49841;BME280;35738;49.890;5.930;2023-02-16T07:49:53;96555.31;;;3.96;95.62
49841;BME280;35738;49.890;5.930;2023-02-16T07:52:19;96557.50;;;4.14;94.08
49841;BME280;35738;49.890;5.930;2023-02-16T07:54:46;96555.88;;;4.13;93.87
49841;BME280;35738;49.890;5.930;2023-02-16T07:57:12;96558.59;;;4.13;93.23
49841;BME280;35738;49.890;5.930;2023-02-16T07:59:39;96558.59;;;4.19;93.48
49841;BME280;35738;49.890;5.930;2023-02-16T08:02:06;96548.25;;;4.15;92.72
49841;BME280;35738;49.890;5.930;2023-02-16T08:04:33;96552.59;;;4.22;92.11
49841;BME280;35738;49.890;5.930;2023-02-16T08:06:59;96554.78;;;4.20;91.67
49841;BME280;35738;49.890;5.930;2023-02-16T08:09:26;96555.03;;;4.33;91.28
49841;BME280;35738;49.890;5.930;2023-02-16T08:11:52;96558.59;;;4.34;91.61
49841;BME280;35738;49.890;5.930;2023-02-16T08:14:19;96571.66;;;4.37;91.19
49841;BME280;35738;49.890;5.930;2023-02-16T08:16:45;96570.59;;;4.53;90.97
49841;BME280;35738;49.890;5.930;2023-02-16T08:19:12;96557.22;;;4.57;90.07
49841;BME280;35738;49.890;5.930;2023-02-16T08:21:40;96558.31;;;4.56;90.89
49841;BME280;35738;49.890;5.930;2023-02-16T08:24:10;96554.50;;;4.57;89.28
49841;BME280;35738;49.890;5.930;2023-02-16T08:26:39;96560.22;;;4.55;89.83
49841;BME280;35738;49.890;5.930;2023-02-16T08:29:08;96564.00;;;4.74;89.28
49841;BME280;35738;49.890;5.930;2023-02-16T08:31:41;96568.09;;;4.77;88.79
49841;BME280;35738;49.890;5.930;2023-02-16T08:34:08;96571.88;;;4.91;88.20
49841;BME280;35738;49.890;5.930;2023-02-16T08:36:36;96561.81;;;4.82;87.38
49841;BME280;35738;49.890;5.930;2023-02-16T08:39:07;96565.13;;;4.68;87.38
49841;BME280;35738;49.890;5.930;2023-02-16T08:41:35;96565.41;;;4.62;87.79
49841;BME280;35738;49.890;5.930;2023-02-16T08:44:04;96566.75;;;4.44;88.26
49841;BME280;35738;49.890;5.930;2023-02-16T08:46:31;96562.41;;;4.48;89.02
49841;BME280;35738;49.890;5.930;2023-02-16T08:48:59;96559.41;;;4.44;89.63
49841;BME280;35738;49.890;5.930;2023-02-16T08:51:28;96550.41;;;4.44;89.26
49841;BME280;35738;49.890;5.930;2023-02-16T08:53:57;96564.31;;;4.58;89.59
49841;BME280;35738;49.890;5.930;2023-02-16T08:56:24;96561.28;;;4.69;89.31
49841;BME280;35738;49.890;5.930;2023-02-16T08:58:51;96558.81;;;4.83;89.05
49841;BME280;35738;49.890;5.930;2023-02-16T09:01:18;96561.19;;;5.05;88.25
49841;BME280;35738;49.890;5.930;2023-02-16T09:03:45;96568.19;;;5.36;88.12
49841;BME280;35738;49.890;5.930;2023-02-16T09:06:13;96561.00;;;5.56;85.92
49841;BME280;35738;49.890;5.930;2023-02-16T09:08:41;96564.47;;;5.71;86.52
49841;BME280;35738;49.890;5.930;2023-02-16T09:11:11;96569.88;;;5.82;85.68
49841;BME280;35738;49.890;5.930;2023-02-16T09:13:39;96567.34;;;6.00;84.33
49841;BME280;35738;49.890;5.930;2023-02-16T09:16:11;96577.75;;;5.93;82.64
49841;BME280;35738;49.890;5.930;2023-02-16T09:18:38;96570.94;;;5.96;84.55
49841;BME280;35738;49.890;5.930;2023-02-16T09:21:08;96572.50;;;6.07;84.80
49841;BME280;35738;49.890;5.930;2023-02-16T09:23:37;96578.81;;;6.02;84.24
49841;BME280;35738;49.890;5.930;2023-02-16T09:26:07;96568.16;;;6.01;84.50
49841;BME280;35738;49.890;5.930;2023-02-16T09:28:38;96563.28;;;5.88;84.78
49841;BME280;35738;49.890;5.930;2023-02-16T09:31:13;96561.66;;;5.97;84.16
49841;BME280;35738;49.890;5.930;2023-02-16T09:33:42;96564.22;;;5.68;84.66
49841;BME280;35738;49.890;5.930;2023-02-16T09:36:10;96562.53;;;5.77;85.06
49841;BME280;35738;49.890;5.930;2023-02-16T09:38:37;96560.03;;;5.91;84.46
49841;BME280;35738;49.890;5.930;2023-02-16T09:41:29;96567.69;;;5.84;84.67
49841;BME280;35738;49.890;5.930;2023-02-16T09:44:12;96573.94;;;5.84;84.89
49841;BME280;35738;49.890;5.930;2023-02-16T09:46:43;96579.94;;;5.96;84.13
49841;BME280;35738;49.890;5.930;2023-02-16T09:49:39;96576.75;;;5.74;85.29
49841;BME280;35738;49.890;5.930;2023-02-16T09:52:12;96584.91;;;5.79;85.74
49841;BME280;35738;49.890;5.930;2023-02-16T09:54:52;96594.94;;;5.94;84.64
49841;BME280;35738;49.890;5.930;2023-02-16T10:03:19;96585.78;;;6.19;85.99
49841;BME280;35738;49.890;5.930;2023-02-16T10:05:57;96585.34;;;6.07;86.19
49841;BME280;35738;49.890;5.930;2023-02-16T10:08:31;96590.50;;;6.08;86.64
49841;BME280;35738;49.890;5.930;2023-02-16T10:11:09;96589.06;;;6.21;85.88
49841;BME280;35738;49.890;5.930;2023-02-16T10:14:06;96590.38;;;6.28;85.90
49841;BME280;35738;49.890;5.930;2023-02-16T10:16:39;96587.91;;;6.27;85.05
49841;BME280;35738;49.890;5.930;2023-02-16T10:19:23;96590.47;;;6.13;86.62
49841;BME280;35738;49.890;5.930;2023-02-16T10:21:55;96588.84;;;6.12;87.49
49841;BME280;35738;49.890;5.930;2023-02-16T10:24:26;96597.59;;;6.09;86.17
49841;BME280;35738;49.890;5.930;2023-02-16T10:27:02;96596.31;;;5.96;86.50
49841;BME280;35738;49.890;5.930;2023-02-16T10:29:32;96599.00;;;6.07;86.03
49841;BME280;35738;49.890;5.930;2023-02-16T10:32:31;96592.94;;;6.15;85.79
49841;BME280;35738;49.890;5.930;2023-02-16T10:35:14;96594.25;;;6.22;84.99
49841;BME280;35738;49.890;5.930;2023-02-16T10:40:54;96594.69;;;6.34;85.95
49841;BME280;35738;49.890;5.930;2023-02-16T10:45:59;96601.41;;;6.47;85.21
49841;BME280;35738;49.890;5.930;2023-02-16T10:48:27;96601.88;;;6.59;86.52
49841;BME280;35738;49.890;5.930;2023-02-16T10:51:13;96603.28;;;6.52;85.75
49841;BME280;35738;49.890;5.930;2023-02-16T10:59:14;96606.84;;;6.52;86.47
49841;BME280;35738;49.890;5.930;2023-02-16T11:01:43;96596.47;;;6.49;86.63
49841;BME280;35738;49.890;5.930;2023-02-16T11:04:38;96600.34;;;6.43;86.36
49841;BME280;35738;49.890;5.930;2023-02-16T11:07:11;96594.75;;;6.58;85.44
49841;BME280;35738;49.890;5.930;2023-02-16T11:09:39;96589.00;;;6.60;85.68
49841;BME280;35738;49.890;5.930;2023-02-16T11:12:14;96587.56;;;6.67;85.16
49841;BME280;35738;49.890;5.930;2023-02-16T11:14:48;96574.13;;;6.76;84.58
49841;BME280;35738;49.890;5.930;2023-02-16T11:17:17;96579.66;;;6.66;84.58
49841;BME280;35738;49.890;5.930;2023-02-16T11:19:57;96581.75;;;6.79;84.81
49841;BME280;35738;49.890;5.930;2023-02-16T11:22:36;96586.47;;;6.68;84.63
49841;BME280;35738;49.890;5.930;2023-02-16T11:27:56;96572.81;;;6.68;84.79
49841;BME280;35738;49.890;5.930;2023-02-16T11:30:39;96571.31;;;6.86;85.13
49841;BME280;35738;49.890;5.930;2023-02-16T11:33:21;96579.16;;;6.93;84.88
49841;BME280;35738;49.890;5.930;2023-02-16T11:35:48;96579.69;;;7.19;84.38
49841;BME280;35738;49.890;5.930;2023-02-16T11:38:54;96569.00;;;7.22;85.13
49841;BME280;35738;49.890;5.930;2023-02-16T11:41:22;96570.97;;;7.17;85.44
49841;BME280;35738;49.890;5.930;2023-02-16T11:43:50;96563.63;;;7.12;85.78
49841;BME280;35738;49.890;5.930;2023-02-16T11:46:19;96563.63;;;7.12;84.09
49841;BME280;35738;49.890;5.930;2023-02-16T11:48:46;96557.59;;;7.15;85.82
49841;BME280;35738;49.890;5.930;2023-02-16T11:51:14;96558.81;;;7.04;85.48
49841;BME280;35738;49.890;5.930;2023-02-16T11:53:43;96562.13;;;7.25;85.60
49841;BME280;35738;49.890;5.930;2023-02-16T11:56:26;96567.34;;;6.97;86.02
49841;BME280;35738;49.890;5.930;2023-02-16T11:59:18;96563.69;;;6.83;87.24
49841;BME280;35738;49.890;5.930;2023-02-16T12:12:16;96563.97;;;6.82;88.53
49841;BME280;35738;49.890;5.930;2023-02-16T12:15:12;96569.47;;;6.77;89.51
49841;BME280;35738;49.890;5.930;2023-02-16T12:23:42;96563.63;;;6.88;89.75
49841;BME280;35738;49.890;5.930;2023-02-16T12:37:02;96538.38;;;6.96;95.54
49841;BME280;35738;49.890;5.930;2023-02-16T12:40:29;96536.00;;;6.90;96.12
49841;BME280;35738;49.890;5.930;2023-02-16T12:43:19;96519.59;;;6.90;97.65
49841;BME280;35738;49.890;5.930;2023-02-16T12:45:50;96519.16;;;6.78;99.53
49841;BME280;35738;49.890;5.930;2023-02-16T12:48:36;96518.81;;;6.84;100.00
49841;BME280;35738;49.890;5.930;2023-02-16T12:51:09;96519.00;;;6.93;100.00
49841;BME280;35738;49.890;5.930;2023-02-16T12:53:49;96521.09;;;7.01;100.00
49841;BME280;35738;49.890;5.930;2023-02-16T12:56:26;96520.22;;;7.06;100.00
49841;BME280;35738;49.890;5.930;2023-02-16T12:59:02;96521.91;;;6.78;99.97
49841;BME280;35738;49.890;5.930;2023-02-16T13:01:32;96525.09;;;6.85;100.00
49841;BME280;35738;49.890;5.930;2023-02-16T13:04:05;96527.69;;;7.00;100.00
49841;BME280;35738;49.890;5.930;2023-02-16T13:07:10;96532.72;;;7.12;100.00
49841;BME280;35738;49.890;5.930;2023-02-16T13:09:51;96529.19;;;7.11;100.00
49841;BME280;35738;49.890;5.930;2023-02-16T13:12:36;96533.09;;;7.05;100.00
49841;BME280;35738;49.890;5.930;2023-02-16T13:15:14;96515.00;;;7.09;99.76
49841;BME280;35738;49.890;5.930;2023-02-16T13:20:15;96506.91;;;6.99;100.00
49841;BME280;35738;49.890;5.930;2023-02-16T13:26:03;96497.47;;;7.10;100.00
49841;BME280;35738;49.890;5.930;2023-02-16T13:29:00;96502.94;;;7.10;100.00
49841;BME280;35738;49.890;5.930;2023-02-16T13:31:42;96497.19;;;7.12;100.00
49841;BME280;35738;49.890;5.930;2023-02-16T13:34:26;96502.34;;;7.13;100.00
49841;BME280;35738;49.890;5.930;2023-02-16T13:37:13;96505.63;;;7.15;100.00
49841;BME280;35738;49.890;5.930;2023-02-16T13:42:37;96480.94;;;7.20;100.00
49841;BME280;35738;49.890;5.930;2023-02-16T13:45:31;96471.13;;;7.38;99.76
49841;BME280;35738;49.890;5.930;2023-02-16T13:47:59;96476.81;;;7.42;99.72
49841;BME280;35738;49.890;5.930;2023-02-16T13:50:32;96469.16;;;7.44;97.90
49841;BME280;35738;49.890;5.930;2023-02-16T13:53:19;96471.00;;;7.48;98.43
49841;BME280;35738;49.890;5.930;2023-02-16T13:55:46;96467.50;;;7.43;98.65
49841;BME280;35738;49.890;5.930;2023-02-16T14:00:46;96471.31;;;7.47;97.01
49841;BME280;35738;49.890;5.930;2023-02-16T14:06:27;96474.03;;;7.47;97.39
49841;BME280;35738;49.890;5.930;2023-02-16T14:08:33;96470.72;;;7.50;95.86
49841;BME280;35738;49.890;5.930;2023-02-16T14:11:02;96470.00;;;7.39;96.51
49841;BME280;35738;49.890;5.930;2023-02-16T14:16:08;96480.91;;;7.44;96.12
49841;BME280;35738;49.890;5.930;2023-02-16T14:21:31;96466.94;;;7.46;96.88
49841;BME280;35738;49.890;5.930;2023-02-16T14:24:03;96462.34;;;7.60;95.49
49841;BME280;35738;49.890;5.930;2023-02-16T14:26:50;96463.53;;;7.54;96.58
49841;BME280;35738;49.890;5.930;2023-02-16T14:29:21;96456.13;;;7.54;97.48
49841;BME280;35738;49.890;5.930;2023-02-16T14:34:38;96463.81;;;7.71;95.89
49841;BME280;35738;49.890;5.930;2023-02-16T14:37:24;96466.41;;;7.62;96.01
49841;BME280;35738;49.890;5.930;2023-02-16T14:39:54;96464.25;;;7.78;94.06
49841;BME280;35738;49.890;5.930;2023-02-16T14:42:34;96459.31;;;7.80;94.97
49841;BME280;35738;49.890;5.930;2023-02-16T14:45:24;96455.75;;;7.80;95.53
49841;BME280;35738;49.890;5.930;2023-02-16T14:56:40;96450.16;;;7.52;95.43
49841;BME280;35738;49.890;5.930;2023-02-16T14:59:27;96446.81;;;7.55;95.39
49841;BME280;35738;49.890;5.930;2023-02-16T15:01:55;96450.81;;;7.63;95.53
49841;BME280;35738;49.890;5.930;2023-02-16T15:04:27;96449.94;;;7.49;95.79
49841;BME280;35738;49.890;5.930;2023-02-16T15:06:55;96461.97;;;7.48;96.28
49841;BME280;35738;49.890;5.930;2023-02-16T15:09:33;96462.28;;;7.46;96.42
49841;BME280;35738;49.890;5.930;2023-02-16T15:12:03;96456.03;;;7.41;96.46
49841;BME280;35738;49.890;5.930;2023-02-16T15:14:56;96450.81;;;7.44;96.68
49841;BME280;35738;49.890;5.930;2023-02-16T15:17:28;96452.31;;;7.31;97.20